createdAt,value
2022-08-19T00:00:43.389Z,0.00
2022-08-19T00:01:43.277Z,0.00
2022-08-19T00:02:50.082Z,0.00
2022-08-19T00:03:44.264Z,0.00
2022-08-19T00:04:43.300Z,0.00
2022-08-19T00:05:43.317Z,0.00
2022-08-19T00:06:43.260Z,0.00
2022-08-19T00:07:43.261Z,0.00
2022-08-19T00:08:43.228Z,0.00
2022-08-19T00:09:43.243Z,0.00
2022-08-19T00:10:43.278Z,0.00
2022-08-19T00:11:43.207Z,0.00
2022-08-19T00:12:55.624Z,0.00
2022-08-19T00:13:44.197Z,0.00
2022-08-19T00:14:43.189Z,0.00
2022-08-19T00:15:43.187Z,0.00
2022-08-19T00:16:43.207Z,0.00
2022-08-19T00:17:43.180Z,0.00
2022-08-19T00:18:43.180Z,0.00
2022-08-19T00:19:43.162Z,0.00
2022-08-19T00:20:43.148Z,0.00
2022-08-19T00:21:43.195Z,0.00
2022-08-19T00:22:43.144Z,0.00
2022-08-19T00:23:43.985Z,0.00
2022-08-19T00:24:43.141Z,0.00
2022-08-19T00:25:44.112Z,0.00
2022-08-19T00:26:44.551Z,0.00
2022-08-19T00:27:43.129Z,0.00
2022-08-19T00:28:43.084Z,0.00
2022-08-19T00:29:43.095Z,0.00
2022-08-19T00:30:43.098Z,0.00
2022-08-19T00:31:43.064Z,0.00
2022-08-19T00:32:43.103Z,0.00
2022-08-19T00:33:43.046Z,0.00
2022-08-19T00:34:43.040Z,0.00
2022-08-19T00:35:43.034Z,0.00
2022-08-19T00:36:43.032Z,0.00
2022-08-19T00:37:43.349Z,0.00
2022-08-19T00:38:44.002Z,0.00
2022-08-19T00:39:43.087Z,0.00
2022-08-19T00:40:42.999Z,0.00
2022-08-19T00:41:42.996Z,0.00
2022-08-19T00:42:42.975Z,0.00
2022-08-19T00:43:43.008Z,0.00
2022-08-19T00:44:42.967Z,0.00
2022-08-19T00:45:42.976Z,0.00
2022-08-19T00:46:42.943Z,0.00
2022-08-19T00:47:42.948Z,0.00
2022-08-19T00:48:43.673Z,0.00
2022-08-19T00:49:42.959Z,0.00
2022-08-19T00:50:51.477Z,0.00
2022-08-19T00:51:43.904Z,0.00
2022-08-19T00:52:42.904Z,0.00
2022-08-19T00:53:42.905Z,0.00
2022-08-19T00:54:42.941Z,0.00
2022-08-19T00:55:43.412Z,0.00
2022-08-19T00:56:42.881Z,0.00
2022-08-19T00:57:42.880Z,0.00
2022-08-19T00:58:42.864Z,0.00
2022-08-19T01:00:00.781Z,0.00
2022-08-19T01:00:43.855Z,0.00
2022-08-19T01:01:42.881Z,0.00
2022-08-19T01:02:42.847Z,0.00
2022-08-19T01:03:57.911Z,0.00
2022-08-19T01:04:43.878Z,0.00
2022-08-19T01:05:42.825Z,0.00
2022-08-19T01:06:42.804Z,0.00
2022-08-19T01:07:42.798Z,0.00
2022-08-19T01:08:42.792Z,0.00
2022-08-19T01:09:42.848Z,0.00
2022-08-19T01:10:42.820Z,0.00
2022-08-19T01:11:42.789Z,0.00
2022-08-19T01:12:42.772Z,0.00
2022-08-19T01:13:49.291Z,0.00
2022-08-19T01:14:43.775Z,0.00
2022-08-19T01:15:42.749Z,0.00
2022-08-19T01:16:42.735Z,0.00
2022-08-19T01:17:42.727Z,0.00
2022-08-19T01:18:42.726Z,0.00
2022-08-19T01:19:43.446Z,0.00
2022-08-19T01:20:42.730Z,0.00
2022-08-19T01:21:42.715Z,0.00
2022-08-19T01:22:42.697Z,0.00
2022-08-19T01:23:42.689Z,0.00
2022-08-19T01:24:49.609Z,0.00
2022-08-19T01:25:43.700Z,0.00
2022-08-19T01:26:42.690Z,0.00
2022-08-19T01:27:43.648Z,0.00
2022-08-19T01:28:42.666Z,0.00
2022-08-19T01:29:42.663Z,0.00
2022-08-19T01:30:44.495Z,0.00
2022-08-19T01:31:43.638Z,0.00
2022-08-19T01:32:42.643Z,0.00
2022-08-19T01:33:42.635Z,0.00
2022-08-19T01:34:42.633Z,0.00
2022-08-19T01:35:42.605Z,0.00
2022-08-19T01:36:42.628Z,0.00
2022-08-19T01:37:42.588Z,0.00
2022-08-19T01:38:44.091Z,0.00
2022-08-19T01:39:42.599Z,0.00
2022-08-19T01:40:42.569Z,0.00
2022-08-19T01:41:42.735Z,0.00
2022-08-19T01:42:42.801Z,0.00
2022-08-19T01:44:10.410Z,0.00
2022-08-19T01:44:43.544Z,0.00
2022-08-19T01:45:42.526Z,0.00
2022-08-19T01:46:42.563Z,0.00
2022-08-19T01:47:43.392Z,0.00
2022-08-19T01:48:43.508Z,0.00
2022-08-19T01:49:42.548Z,0.00
2022-08-19T01:50:42.500Z,0.00
2022-08-19T01:51:42.520Z,0.00
2022-08-19T01:52:42.590Z,0.00
2022-08-19T01:53:42.473Z,0.00
2022-08-19T01:54:42.469Z,0.00
2022-08-19T01:55:42.516Z,0.00
2022-08-19T01:56:42.463Z,0.00
2022-08-19T01:57:42.490Z,0.00
2022-08-19T01:58:42.442Z,0.00
2022-08-19T01:59:42.438Z,0.00
2022-08-19T02:00:42.431Z,0.00
2022-08-19T02:01:42.552Z,0.00
2022-08-19T02:02:44.176Z,0.00
2022-08-19T02:03:42.413Z,0.00
2022-08-19T02:04:42.504Z,0.00
2022-08-19T02:05:42.392Z,0.00
2022-08-19T02:06:42.445Z,0.00
2022-08-19T02:07:42.464Z,0.00
2022-08-19T02:08:42.371Z,0.00
2022-08-19T02:09:42.370Z,0.00
2022-08-19T02:10:42.368Z,0.00
2022-08-19T02:11:42.352Z,0.00
2022-08-19T02:12:42.341Z,0.00
2022-08-19T02:13:42.423Z,0.00
2022-08-19T02:14:42.357Z,0.00
2022-08-19T02:15:42.338Z,0.00
2022-08-19T02:16:42.319Z,0.00
2022-08-19T02:17:42.345Z,0.00
2022-08-19T02:18:42.350Z,0.00
2022-08-19T02:19:42.298Z,0.00
2022-08-19T02:20:42.294Z,0.00
2022-08-19T02:21:42.275Z,0.00
2022-08-19T02:22:42.932Z,0.00
2022-08-19T02:23:42.346Z,0.00
2022-08-19T02:24:42.258Z,0.00
2022-08-19T02:25:42.254Z,0.00
2022-08-19T02:26:42.245Z,0.00
2022-08-19T02:27:42.254Z,0.00
2022-08-19T02:28:42.228Z,0.00
2022-08-19T02:29:42.943Z,0.00
2022-08-19T02:30:42.242Z,0.00
2022-08-19T02:31:42.248Z,0.00
2022-08-19T02:32:44.298Z,0.00
2022-08-19T02:33:42.213Z,0.00
2022-08-19T02:34:42.238Z,0.00
2022-08-19T02:35:42.177Z,0.00
2022-08-19T02:36:42.696Z,0.00
2022-08-19T02:37:42.162Z,0.00
2022-08-19T02:38:42.195Z,0.00
2022-08-19T02:39:42.260Z,0.00
2022-08-19T02:40:42.142Z,0.00
2022-08-19T02:41:42.150Z,0.00
2022-08-19T02:42:43.086Z,0.00
2022-08-19T02:44:18.382Z,0.00
2022-08-19T02:44:43.143Z,0.00
2022-08-19T02:45:42.098Z,0.00
2022-08-19T02:46:42.105Z,0.00
2022-08-19T02:47:42.081Z,0.00
2022-08-19T02:48:42.077Z,0.00
2022-08-19T02:49:42.069Z,0.00
2022-08-19T02:50:53.285Z,0.00
2022-08-19T02:51:43.059Z,0.00
2022-08-19T02:52:42.063Z,0.00
2022-08-19T02:53:42.057Z,0.00
2022-08-19T02:54:42.046Z,0.00
2022-08-19T02:55:45.929Z,0.00
2022-08-19T02:56:42.030Z,0.00
2022-08-19T02:57:43.082Z,0.00
2022-08-19T02:58:42.101Z,0.00
2022-08-19T02:59:42.019Z,0.00
2022-08-19T03:00:42.158Z,0.00
2022-08-19T03:01:42.248Z,0.00
2022-08-19T03:02:41.992Z,0.00
2022-08-19T03:03:42.988Z,0.00
2022-08-19T03:04:42.038Z,0.00
2022-08-19T03:05:49.233Z,0.00
2022-08-19T03:06:43.000Z,0.00
2022-08-19T03:07:42.063Z,0.00
2022-08-19T03:08:41.948Z,0.00
2022-08-19T03:09:41.948Z,0.00
2022-08-19T03:10:41.925Z,0.00
2022-08-19T03:11:41.947Z,0.00
2022-08-19T03:12:41.913Z,0.00
2022-08-19T03:13:41.913Z,0.00
2022-08-19T03:14:41.893Z,0.00
2022-08-19T03:15:41.894Z,0.00
2022-08-19T03:16:42.946Z,0.00
2022-08-19T03:17:41.953Z,0.00
2022-08-19T03:18:41.874Z,0.00
2022-08-19T03:19:41.873Z,0.00
2022-08-19T03:20:41.848Z,0.00
2022-08-19T03:21:41.896Z,0.00
2022-08-19T03:22:42.961Z,0.00
2022-08-19T03:23:41.825Z,0.00
2022-08-19T03:24:41.846Z,0.00
2022-08-19T03:25:41.821Z,0.00
2022-08-19T03:26:41.816Z,0.00
2022-08-19T03:27:41.841Z,0.00
2022-08-19T03:28:41.817Z,0.00
2022-08-19T03:29:43.898Z,0.00
2022-08-19T03:30:41.844Z,0.00
2022-08-19T03:31:50.963Z,0.00
2022-08-19T03:32:45.410Z,0.00
2022-08-19T03:33:41.765Z,0.00
2022-08-19T03:34:41.769Z,0.00
2022-08-19T03:35:41.753Z,0.00
2022-08-19T03:36:41.748Z,0.00
2022-08-19T03:37:42.220Z,0.00
2022-08-19T03:38:41.945Z,0.00
2022-08-19T03:39:42.481Z,0.00
2022-08-19T03:40:41.744Z,0.00
2022-08-19T03:41:44.814Z,0.00
2022-08-19T03:42:49.051Z,0.00
2022-08-19T03:43:42.699Z,0.00
2022-08-19T03:44:41.905Z,0.00
2022-08-19T03:45:41.693Z,0.00
2022-08-19T03:46:42.387Z,0.00
2022-08-19T03:47:41.705Z,0.00
2022-08-19T03:48:43.404Z,0.00
2022-08-19T03:49:41.646Z,0.00
2022-08-19T03:50:41.638Z,0.00
2022-08-19T03:51:41.646Z,0.00
2022-08-19T03:52:50.279Z,0.00
2022-08-19T03:53:42.655Z,0.00
2022-08-19T03:54:41.698Z,0.00
2022-08-19T03:55:41.645Z,0.00
2022-08-19T03:56:41.629Z,0.00
2022-08-19T03:57:41.601Z,0.00
2022-08-19T03:58:41.623Z,0.00
2022-08-19T03:59:41.576Z,0.00
2022-08-19T04:00:41.568Z,0.00
2022-08-19T04:01:41.683Z,0.00
2022-08-19T04:02:42.464Z,0.00
2022-08-19T04:03:41.626Z,0.00
2022-08-19T04:04:41.550Z,0.00
2022-08-19T04:05:41.540Z,0.00
2022-08-19T04:06:41.548Z,0.00
2022-08-19T04:07:41.579Z,0.00
2022-08-19T04:08:41.519Z,0.00
2022-08-19T04:09:41.535Z,0.00
2022-08-19T04:10:41.501Z,0.00
2022-08-19T04:11:43.411Z,0.00
2022-08-19T04:12:41.492Z,0.00
2022-08-19T04:13:41.470Z,0.00
2022-08-19T04:14:41.824Z,0.00
2022-08-19T04:15:42.495Z,0.00
2022-08-19T04:16:41.449Z,0.00
2022-08-19T04:17:41.441Z,0.00
2022-08-19T04:18:41.446Z,0.00
2022-08-19T04:19:41.453Z,0.00
2022-08-19T04:20:41.437Z,0.00
2022-08-19T04:21:41.456Z,0.00
2022-08-19T04:22:41.406Z,0.00
2022-08-19T04:23:45.601Z,0.00
2022-08-19T04:24:41.418Z,0.00
2022-08-19T04:25:41.397Z,0.00
2022-08-19T04:26:41.409Z,0.00
2022-08-19T04:27:41.376Z,0.00
2022-08-19T04:28:41.375Z,0.00
2022-08-19T04:29:41.527Z,0.00
2022-08-19T04:30:41.634Z,0.00
2022-08-19T04:31:41.345Z,0.00
2022-08-19T04:32:41.338Z,0.00
2022-08-19T04:33:41.355Z,0.00
2022-08-19T04:35:01.168Z,0.00
2022-08-19T04:35:42.335Z,0.00
2022-08-19T04:36:41.333Z,0.00
2022-08-19T04:37:41.305Z,0.00
2022-08-19T04:38:41.330Z,5.62
2022-08-19T04:39:41.513Z,5.62
2022-08-19T04:40:41.285Z,5.62
2022-08-19T04:41:41.286Z,5.62
2022-08-19T04:42:41.264Z,5.62
2022-08-19T04:43:41.266Z,5.62
2022-08-19T04:44:46.439Z,5.62
2022-08-19T04:45:43.973Z,5.62
2022-08-19T04:46:51.577Z,5.62
2022-08-19T04:47:48.241Z,5.62
2022-08-19T04:48:49.226Z,5.62
2022-08-19T04:49:42.259Z,5.62
2022-08-19T04:50:41.208Z,5.62
2022-08-19T04:51:41.210Z,11.25
2022-08-19T04:52:41.210Z,11.25
2022-08-19T04:53:41.393Z,11.25
2022-08-19T04:54:41.896Z,11.25
2022-08-19T04:55:41.180Z,11.25
2022-08-19T04:56:41.210Z,16.88
2022-08-19T04:57:41.259Z,16.88
2022-08-19T04:58:41.168Z,16.88
2022-08-19T04:59:41.202Z,16.88
2022-08-19T05:00:41.268Z,16.88
2022-08-19T05:01:41.143Z,22.50
2022-08-19T05:02:41.137Z,22.50
2022-08-19T05:03:41.124Z,22.50
2022-08-19T05:04:41.282Z,22.50
2022-08-19T05:05:45.327Z,22.50
2022-08-19T05:06:41.110Z,28.12
2022-08-19T05:07:41.100Z,28.12
2022-08-19T05:08:41.100Z,28.12
2022-08-19T05:09:58.966Z,28.12
2022-08-19T05:10:42.965Z,28.12
2022-08-19T05:11:41.074Z,33.75
2022-08-19T05:12:41.101Z,33.75
2022-08-19T05:13:41.066Z,33.75
2022-08-19T05:14:41.063Z,39.38
2022-08-19T05:15:41.589Z,39.38
2022-08-19T05:16:41.032Z,39.38
2022-08-19T05:17:41.118Z,39.38
2022-08-19T05:18:41.025Z,45.00
2022-08-19T05:19:42.017Z,45.00
2022-08-19T05:20:41.038Z,45.00
2022-08-19T05:21:41.099Z,50.62
2022-08-19T05:22:43.838Z,50.62
2022-08-19T05:23:40.992Z,50.62
2022-08-19T05:24:56.388Z,50.62
2022-08-19T05:25:43.003Z,50.62
2022-08-19T05:26:42.836Z,50.62
2022-08-19T05:27:43.475Z,50.62
2022-08-19T05:28:40.958Z,56.25
2022-08-19T05:29:41.010Z,56.25
2022-08-19T05:30:47.423Z,56.25
2022-08-19T05:31:42.869Z,56.25
2022-08-19T05:32:40.984Z,56.25
2022-08-19T05:33:41.941Z,56.25
2022-08-19T05:34:40.913Z,61.88
2022-08-19T05:35:40.936Z,61.88
2022-08-19T05:36:41.898Z,61.88
2022-08-19T05:37:41.861Z,67.50
2022-08-19T05:38:40.904Z,73.12
2022-08-19T05:39:41.615Z,73.12
2022-08-19T05:40:41.064Z,78.75
2022-08-19T05:41:40.882Z,84.38
2022-08-19T05:42:40.859Z,84.38
2022-08-19T05:43:40.857Z,90.00
2022-08-19T05:44:40.865Z,90.00
2022-08-19T05:45:41.001Z,95.62
2022-08-19T05:46:40.833Z,95.62
2022-08-19T05:47:42.318Z,95.62
2022-08-19T05:48:40.814Z,101.25
2022-08-19T05:49:40.847Z,101.25
2022-08-19T05:50:40.894Z,106.88
2022-08-19T05:51:40.832Z,106.88
2022-08-19T05:52:43.814Z,112.50
2022-08-19T05:53:41.794Z,112.50
2022-08-19T05:54:40.818Z,118.12
2022-08-19T05:55:40.805Z,118.12
2022-08-19T05:56:40.766Z,118.12
2022-08-19T05:57:40.772Z,123.75
2022-08-19T05:58:40.824Z,123.75
2022-08-19T05:59:40.733Z,129.38
2022-08-19T06:00:40.731Z,129.38
2022-08-19T06:01:40.890Z,129.38
2022-08-19T06:02:40.743Z,129.38
2022-08-19T06:03:40.790Z,129.38
2022-08-19T06:04:40.759Z,129.38
2022-08-19T06:05:42.258Z,129.38
2022-08-19T06:06:41.715Z,129.38
2022-08-19T06:07:40.695Z,123.75
2022-08-19T06:08:40.673Z,123.75
2022-08-19T06:09:40.666Z,123.75
2022-08-19T06:10:40.681Z,123.75
2022-08-19T06:11:40.696Z,118.12
2022-08-19T06:12:40.646Z,118.12
2022-08-19T06:13:40.642Z,118.12
2022-08-19T06:14:41.928Z,118.12
2022-08-19T06:15:40.626Z,118.12
2022-08-19T06:16:40.666Z,123.75
2022-08-19T06:17:40.609Z,123.75
2022-08-19T06:18:40.617Z,123.75
2022-08-19T06:19:41.190Z,123.75
2022-08-19T06:20:55.435Z,129.38
2022-08-19T06:21:42.645Z,129.38
2022-08-19T06:22:40.597Z,135.00
2022-08-19T06:23:40.574Z,135.00
2022-08-19T06:24:40.558Z,135.00
2022-08-19T06:25:40.555Z,140.62
2022-08-19T06:26:40.605Z,146.25
2022-08-19T06:27:53.392Z,146.25
2022-08-19T06:28:42.539Z,146.25
2022-08-19T06:29:40.532Z,151.88
2022-08-19T06:30:40.524Z,151.88
2022-08-19T06:31:40.507Z,151.88
2022-08-19T06:32:42.924Z,151.88
2022-08-19T06:33:41.500Z,151.88
2022-08-19T06:34:40.501Z,151.88
2022-08-19T06:35:40.551Z,157.50
2022-08-19T06:36:40.480Z,151.88
2022-08-19T06:37:43.713Z,157.50
2022-08-19T06:38:41.473Z,151.88
2022-08-19T06:39:40.520Z,157.50
2022-08-19T06:40:40.533Z,157.50
2022-08-19T06:41:47.186Z,157.50
2022-08-19T06:42:50.214Z,163.12
2022-08-19T06:43:42.298Z,163.12
2022-08-19T06:44:42.543Z,157.50
2022-08-19T06:45:40.422Z,157.50
2022-08-19T06:46:40.416Z,157.50
2022-08-19T06:47:40.428Z,157.50
2022-08-19T06:48:45.149Z,157.50
2022-08-19T06:49:41.424Z,157.50
2022-08-19T06:50:40.986Z,163.12
2022-08-19T06:51:42.532Z,157.50
2022-08-19T06:52:40.400Z,157.50
2022-08-19T06:53:40.513Z,157.50
2022-08-19T06:54:55.336Z,146.25
2022-08-19T06:55:41.350Z,146.25
2022-08-19T06:56:40.354Z,146.25
2022-08-19T06:57:40.362Z,140.62
2022-08-19T06:58:40.362Z,140.62
2022-08-19T06:59:40.334Z,135.00
2022-08-19T07:00:40.316Z,135.00
2022-08-19T07:01:40.323Z,135.00
2022-08-19T07:02:40.328Z,135.00
2022-08-19T07:03:40.317Z,140.62
2022-08-19T07:04:42.586Z,146.25
2022-08-19T07:05:40.283Z,146.25
2022-08-19T07:06:43.904Z,140.62
2022-08-19T07:07:41.310Z,140.62
2022-08-19T07:09:40.259Z,140.62
2022-08-19T07:10:42.804Z,140.62
2022-08-19T07:11:40.248Z,140.62
2022-08-19T07:12:40.254Z,140.62
2022-08-19T07:13:40.257Z,146.25
2022-08-19T07:14:40.224Z,146.25
2022-08-19T07:15:40.208Z,151.88
2022-08-19T07:16:43.010Z,151.88
2022-08-19T07:17:42.104Z,157.50
2022-08-19T07:18:40.217Z,157.50
2022-08-19T07:19:40.188Z,163.12
2022-08-19T07:20:40.268Z,163.12
2022-08-19T07:21:40.168Z,163.12
2022-08-19T07:22:40.163Z,157.50
2022-08-19T07:23:40.188Z,163.12
2022-08-19T07:24:40.150Z,163.12
2022-08-19T07:25:41.223Z,168.75
2022-08-19T07:26:40.135Z,168.75
2022-08-19T07:27:40.136Z,185.62
2022-08-19T07:28:40.165Z,180.00
2022-08-19T07:29:41.117Z,185.62
2022-08-19T07:30:40.112Z,185.62
2022-08-19T07:31:40.107Z,191.25
2022-08-19T07:32:40.094Z,196.88
2022-08-19T07:33:40.123Z,202.50
2022-08-19T07:34:40.127Z,202.50
2022-08-19T07:35:40.078Z,208.12
2022-08-19T07:36:40.082Z,208.12
2022-08-19T07:37:40.071Z,213.75
2022-08-19T07:38:40.060Z,213.75
2022-08-19T07:39:40.120Z,219.38
2022-08-19T07:40:40.049Z,219.38
2022-08-19T07:41:40.054Z,219.38
2022-08-19T07:42:40.028Z,219.38
2022-08-19T07:43:40.037Z,219.38
2022-08-19T07:45:40.016Z,213.75
2022-08-19T07:46:40.011Z,219.38
2022-08-19T07:47:48.936Z,219.38
2022-08-19T07:48:41.001Z,208.12
2022-08-19T07:49:40.024Z,219.38
2022-08-19T07:50:40.002Z,208.12
2022-08-19T07:51:39.969Z,208.12
2022-08-19T07:52:39.967Z,225.00
2022-08-19T07:53:40.080Z,219.38
2022-08-19T07:54:39.964Z,213.75
2022-08-19T07:55:43.547Z,225.00
2022-08-19T07:56:39.928Z,208.12
2022-08-19T07:57:39.961Z,208.12
2022-08-19T07:58:39.921Z,208.12
2022-08-19T07:59:39.946Z,236.25
2022-08-19T08:00:39.896Z,253.12
2022-08-19T08:01:41.666Z,258.75
2022-08-19T08:02:39.895Z,253.12
2022-08-19T08:03:39.882Z,247.50
2022-08-19T08:04:39.896Z,213.75
2022-08-19T08:05:43.398Z,213.75
2022-08-19T08:06:40.861Z,230.62
2022-08-19T08:07:39.852Z,213.75
2022-08-19T08:08:44.195Z,241.88
2022-08-19T08:09:40.882Z,247.50
2022-08-19T08:10:39.824Z,213.75
2022-08-19T08:11:39.824Z,208.12
2022-08-19T08:12:39.814Z,208.12
2022-08-19T08:13:39.818Z,202.50
2022-08-19T08:14:39.800Z,202.50
2022-08-19T08:15:42.948Z,202.50
2022-08-19T08:16:47.075Z,208.12
2022-08-19T08:17:48.724Z,236.25
2022-08-19T08:18:40.783Z,213.75
2022-08-19T08:19:39.765Z,213.75
2022-08-19T08:20:39.787Z,213.75
2022-08-19T08:22:39.745Z,213.75
2022-08-19T08:23:39.860Z,213.75
2022-08-19T08:24:39.729Z,208.12
2022-08-19T08:25:39.751Z,208.12
2022-08-19T08:26:39.718Z,213.75
2022-08-19T08:27:40.734Z,225.00
2022-08-19T08:28:39.717Z,219.38
2022-08-19T08:29:39.701Z,258.75
2022-08-19T08:30:39.756Z,253.12
2022-08-19T08:31:40.685Z,253.12
2022-08-19T08:32:39.693Z,213.75
2022-08-19T08:33:39.669Z,230.62
2022-08-19T08:34:39.684Z,247.50
2022-08-19T08:35:39.705Z,241.88
2022-08-19T08:36:39.654Z,230.62
2022-08-19T08:37:39.638Z,219.38
2022-08-19T08:38:40.803Z,208.12
2022-08-19T08:39:40.668Z,208.12
2022-08-19T08:40:39.619Z,213.75
2022-08-19T08:41:39.643Z,208.12
2022-08-19T08:42:39.607Z,208.12
2022-08-19T08:43:39.600Z,213.75
2022-08-19T08:44:39.589Z,219.38
2022-08-19T08:45:40.916Z,225.00
2022-08-19T08:46:39.589Z,230.62
2022-08-19T08:47:49.656Z,236.25
2022-08-19T08:48:40.558Z,241.88
2022-08-19T08:49:39.550Z,241.88
2022-08-19T08:50:39.586Z,241.88
2022-08-19T08:52:39.543Z,247.50
2022-08-19T08:53:41.763Z,258.75
2022-08-19T08:54:40.525Z,275.62
2022-08-19T08:55:40.516Z,275.62
2022-08-19T08:56:39.566Z,286.88
2022-08-19T08:57:41.078Z,270.00
2022-08-19T08:58:40.491Z,298.12
2022-08-19T08:59:39.500Z,298.12
2022-08-19T09:00:39.495Z,303.75
2022-08-19T09:01:39.506Z,292.50
2022-08-19T09:02:39.487Z,309.38
2022-08-19T09:03:39.453Z,320.62
2022-08-19T09:04:39.448Z,326.25
2022-08-19T09:05:41.533Z,331.88
2022-08-19T09:06:40.810Z,331.88
2022-08-19T09:07:39.937Z,320.62
2022-08-19T09:08:40.427Z,320.62
2022-08-19T09:09:39.422Z,326.25
2022-08-19T09:10:44.441Z,331.88
2022-08-19T09:11:42.145Z,320.62
2022-08-19T09:12:40.414Z,281.25
2022-08-19T09:13:39.393Z,275.62
2022-08-19T09:14:50.197Z,275.62
2022-08-19T09:15:41.390Z,270.00
2022-08-19T09:16:39.372Z,264.38
2022-08-19T09:17:39.406Z,264.38
2022-08-19T09:18:39.355Z,264.38
2022-08-19T09:19:39.387Z,270.00
2022-08-19T09:20:42.570Z,298.12
2022-08-19T09:21:39.339Z,309.38
2022-08-19T09:22:39.372Z,303.75
2022-08-19T09:23:39.327Z,286.88
2022-08-19T09:24:39.310Z,286.88
2022-08-19T09:25:39.311Z,286.88
2022-08-19T09:26:48.609Z,309.38
2022-08-19T09:27:42.731Z,309.38
2022-08-19T09:28:39.294Z,253.12
2022-08-19T09:29:39.288Z,253.12
2022-08-19T09:30:39.282Z,258.75
2022-08-19T09:31:39.296Z,270.00
2022-08-19T09:32:39.261Z,337.50
2022-08-19T09:33:39.272Z,348.75
2022-08-19T09:34:39.252Z,348.75
2022-08-19T09:35:49.942Z,343.12
2022-08-19T09:36:40.238Z,337.50
2022-08-19T09:37:39.241Z,331.88
2022-08-19T09:38:43.575Z,326.25
2022-08-19T09:39:39.250Z,326.25
2022-08-19T09:40:39.211Z,320.62
2022-08-19T09:41:39.194Z,331.88
2022-08-19T09:42:50.158Z,337.50
2022-08-19T09:43:44.170Z,348.75
2022-08-19T09:44:39.199Z,354.38
2022-08-19T09:45:40.195Z,376.88
2022-08-19T09:46:39.168Z,376.88
2022-08-19T09:47:40.613Z,371.25
2022-08-19T09:48:39.190Z,343.12
2022-08-19T09:49:39.167Z,337.50
2022-08-19T09:50:39.140Z,315.00
2022-08-19T09:51:40.130Z,309.38
2022-08-19T09:52:39.149Z,315.00
2022-08-19T09:53:40.173Z,315.00
2022-08-19T09:54:39.122Z,309.38
2022-08-19T09:55:40.120Z,292.50
2022-08-19T09:56:39.101Z,281.25
2022-08-19T09:57:39.103Z,275.62
2022-08-19T09:58:39.090Z,275.62
2022-08-19T09:59:39.122Z,270.00
2022-08-19T10:00:39.083Z,270.00
2022-08-19T10:01:39.121Z,275.62
2022-08-19T10:02:39.069Z,270.00
2022-08-19T10:03:39.060Z,275.62
2022-08-19T10:04:39.084Z,275.62
2022-08-19T10:05:39.045Z,270.00
2022-08-19T10:06:46.232Z,270.00
2022-08-19T10:07:40.032Z,270.00
2022-08-19T10:08:39.033Z,270.00
2022-08-19T10:09:40.043Z,270.00
2022-08-19T10:10:39.038Z,270.00
2022-08-19T10:11:40.004Z,275.62
2022-08-19T10:12:39.002Z,281.25
2022-08-19T10:13:39.021Z,360.00
2022-08-19T10:14:39.285Z,360.00
2022-08-19T10:15:47.101Z,376.88
2022-08-19T10:16:39.998Z,343.12
2022-08-19T10:17:38.964Z,360.00
2022-08-19T10:18:38.960Z,360.00
2022-08-19T10:19:41.004Z,303.75
2022-08-19T10:20:39.942Z,360.00
2022-08-19T10:21:38.944Z,354.38
2022-08-19T10:22:38.928Z,286.88
2022-08-19T10:23:38.928Z,354.38
2022-08-19T10:24:38.940Z,348.75
2022-08-19T10:25:38.963Z,354.38
2022-08-19T10:26:38.964Z,360.00
2022-08-19T10:27:38.907Z,360.00
2022-08-19T10:28:39.060Z,360.00
2022-08-19T10:29:38.935Z,365.62
2022-08-19T10:30:39.909Z,365.62
2022-08-19T10:32:00.594Z,354.38
2022-08-19T10:32:39.898Z,354.38
2022-08-19T10:33:53.383Z,360.00
2022-08-19T10:34:48.137Z,354.38
2022-08-19T10:35:42.772Z,354.38
2022-08-19T10:36:39.867Z,286.88
2022-08-19T10:37:49.841Z,292.50
2022-08-19T10:38:39.877Z,360.00
2022-08-19T10:39:41.003Z,360.00
2022-08-19T10:40:38.859Z,348.75
2022-08-19T10:41:38.830Z,354.38
2022-08-19T10:42:38.820Z,343.12
2022-08-19T10:43:38.817Z,365.62
2022-08-19T10:44:38.810Z,303.75
2022-08-19T10:45:38.818Z,360.00
2022-08-19T10:46:39.812Z,360.00
2022-08-19T10:47:38.799Z,348.75
2022-08-19T10:48:38.789Z,360.00
2022-08-19T10:49:38.775Z,360.00
2022-08-19T10:50:39.796Z,309.38
2022-08-19T10:51:46.494Z,281.25
2022-08-19T10:52:39.763Z,292.50
2022-08-19T10:53:39.756Z,247.50
2022-08-19T10:54:38.773Z,320.62
2022-08-19T10:55:38.869Z,315.00
2022-08-19T10:56:38.730Z,315.00
2022-08-19T10:58:01.803Z,309.38
2022-08-19T10:58:40.737Z,309.38
2022-08-19T10:59:38.720Z,309.38
2022-08-19T11:00:38.756Z,309.38
2022-08-19T11:01:38.716Z,315.00
2022-08-19T11:02:38.701Z,326.25
2022-08-19T11:03:38.706Z,326.25
2022-08-19T11:04:38.686Z,337.50
2022-08-19T11:05:39.860Z,348.75
2022-08-19T11:06:38.754Z,348.75
2022-08-19T11:07:38.675Z,360.00
2022-08-19T11:08:38.797Z,360.00
2022-08-19T11:09:38.672Z,365.62
2022-08-19T11:10:38.654Z,360.00
2022-08-19T11:11:38.662Z,360.00
2022-08-19T11:12:38.644Z,354.38
2022-08-19T11:13:38.631Z,354.38
2022-08-19T11:14:38.631Z,360.00
2022-08-19T11:15:38.649Z,360.00
2022-08-19T11:16:38.631Z,360.00
2022-08-19T11:17:38.608Z,348.75
2022-08-19T11:18:38.614Z,275.62
2022-08-19T11:19:38.602Z,331.88
2022-08-19T11:20:38.588Z,320.62
2022-08-19T11:21:38.646Z,270.00
2022-08-19T11:22:41.477Z,241.88
2022-08-19T11:23:39.570Z,241.88
2022-08-19T11:24:38.590Z,326.25
2022-08-19T11:25:38.546Z,331.88
2022-08-19T11:26:38.581Z,348.75
2022-08-19T11:27:38.532Z,343.12
2022-08-19T11:28:38.530Z,348.75
2022-08-19T11:29:38.523Z,343.12
2022-08-19T11:30:38.511Z,343.12
2022-08-19T11:31:38.577Z,343.12
2022-08-19T11:32:38.500Z,337.50
2022-08-19T11:33:38.498Z,343.12
2022-08-19T11:34:38.491Z,343.12
2022-08-19T11:35:38.505Z,270.00
2022-08-19T11:36:38.508Z,331.88
2022-08-19T11:37:38.464Z,348.75
2022-08-19T11:38:38.488Z,258.75
2022-08-19T11:39:38.488Z,365.62
2022-08-19T11:40:38.468Z,371.25
2022-08-19T11:41:38.482Z,264.38
2022-08-19T11:42:38.444Z,376.88
2022-08-19T11:43:38.490Z,281.25
2022-08-19T11:44:38.416Z,393.75
2022-08-19T11:45:38.407Z,393.75
2022-08-19T11:46:38.431Z,365.62
2022-08-19T11:47:38.425Z,399.38
2022-08-19T11:48:38.394Z,309.38
2022-08-19T11:49:38.403Z,315.00
2022-08-19T11:50:38.377Z,320.62
2022-08-19T11:51:38.370Z,421.88
2022-08-19T11:52:38.425Z,320.62
2022-08-19T11:53:38.357Z,320.62
2022-08-19T11:54:38.426Z,309.38
2022-08-19T11:55:38.352Z,309.38
2022-08-19T11:56:39.336Z,298.12
2022-08-19T11:57:38.381Z,286.88
2022-08-19T11:58:38.325Z,270.00
2022-08-19T11:59:38.325Z,247.50
2022-08-19T12:00:38.309Z,236.25
2022-08-19T12:01:38.306Z,219.38
2022-08-19T12:02:38.313Z,219.38
2022-08-19T12:03:38.346Z,219.38
2022-08-19T12:04:38.296Z,225.00
2022-08-19T12:05:38.298Z,236.25
2022-08-19T12:06:38.277Z,247.50
2022-08-19T12:07:38.287Z,258.75
2022-08-19T12:08:38.275Z,264.38
2022-08-19T12:09:38.262Z,270.00
2022-08-19T12:10:38.240Z,275.62
2022-08-19T12:11:38.223Z,275.62
2022-08-19T12:12:39.233Z,275.62
2022-08-19T12:13:38.259Z,275.62
2022-08-19T12:14:38.227Z,275.62
2022-08-19T12:15:38.225Z,275.62
2022-08-19T12:16:44.737Z,281.25
2022-08-19T12:17:40.211Z,281.25
2022-08-19T12:18:38.252Z,286.88
2022-08-19T12:19:38.203Z,326.25
2022-08-19T12:20:38.197Z,286.88
2022-08-19T12:21:38.198Z,286.88
2022-08-19T12:22:38.173Z,286.88
2022-08-19T12:23:38.174Z,286.88
2022-08-19T12:24:38.202Z,281.25
2022-08-19T12:25:38.159Z,275.62
2022-08-19T12:26:53.383Z,264.38
2022-08-19T12:27:40.344Z,258.75
2022-08-19T12:28:38.147Z,258.75
2022-08-19T12:29:38.180Z,270.00
2022-08-19T12:30:38.141Z,281.25
2022-08-19T12:31:38.129Z,264.38
2022-08-19T12:32:38.127Z,331.88
2022-08-19T12:33:38.132Z,326.25
2022-08-19T12:34:38.151Z,326.25
2022-08-19T12:35:38.109Z,405.00
2022-08-19T12:36:38.114Z,410.62
2022-08-19T12:37:38.103Z,421.88
2022-08-19T12:38:38.098Z,433.12
2022-08-19T12:39:38.151Z,444.38
2022-08-19T12:40:38.084Z,450.00
2022-08-19T12:41:38.082Z,444.38
2022-08-19T12:42:39.081Z,444.38
2022-08-19T12:43:38.096Z,444.38
2022-08-19T12:44:38.088Z,444.38
2022-08-19T12:45:38.056Z,433.12
2022-08-19T12:46:38.055Z,427.50
2022-08-19T12:47:38.049Z,286.88
2022-08-19T12:48:38.043Z,388.12
2022-08-19T12:49:54.353Z,343.12
2022-08-19T12:50:39.033Z,275.62
2022-08-19T12:51:38.016Z,286.88
2022-08-19T12:52:38.033Z,298.12